sensor_id;sensor_type;location;lat;lon;timestamp;P1;durP1;ratioP1;P2;durP2;ratioP2
10596;SDS011;5346;48.766;8.674;2022-12-11T00:02:11;22.27;;;9.23;;
10596;SDS011;5346;48.766;8.674;2022-12-11T00:04:38;14.77;;;8.70;;
10596;SDS011;5346;48.766;8.674;2022-12-11T00:07:12;15.87;;;9.13;;
10596;SDS011;5346;48.766;8.674;2022-12-11T00:09:39;17.40;;;8.50;;
10596;SDS011;5346;48.766;8.674;2022-12-11T00:12:06;16.73;;;8.37;;
10596;SDS011;5346;48.766;8.674;2022-12-11T00:14:40;18.33;;;9.13;;
10596;SDS011;5346;48.766;8.674;2022-12-11T00:17:07;16.10;;;8.77;;
10596;SDS011;5346;48.766;8.674;2022-12-11T00:19:34;18.00;;;8.73;;
10596;SDS011;5346;48.766;8.674;2022-12-11T00:22:08;18.03;;;8.73;;
10596;SDS011;5346;48.766;8.674;2022-12-11T00:24:35;18.80;;;10.07;;
10596;SDS011;5346;48.766;8.674;2022-12-11T00:27:02;21.57;;;11.07;;
10596;SDS011;5346;48.766;8.674;2022-12-11T00:29:36;15.30;;;8.27;;
10596;SDS011;5346;48.766;8.674;2022-12-11T00:32:03;16.93;;;9.53;;
10596;SDS011;5346;48.766;8.674;2022-12-11T00:34:31;15.47;;;8.80;;
10596;SDS011;5346;48.766;8.674;2022-12-11T00:37:05;18.07;;;9.47;;
10596;SDS011;5346;48.766;8.674;2022-12-11T00:39:32;18.13;;;9.47;;
10596;SDS011;5346;48.766;8.674;2022-12-11T00:41:59;17.40;;;9.17;;
10596;SDS011;5346;48.766;8.674;2022-12-11T00:44:35;17.27;;;9.37;;
10596;SDS011;5346;48.766;8.674;2022-12-11T00:47:02;19.80;;;11.30;;
10596;SDS011;5346;48.766;8.674;2022-12-11T00:49:29;18.97;;;10.10;;
10596;SDS011;5346;48.766;8.674;2022-12-11T00:52:03;19.60;;;9.43;;
10596;SDS011;5346;48.766;8.674;2022-12-11T00:54:30;18.77;;;10.47;;
10596;SDS011;5346;48.766;8.674;2022-12-11T00:57:12;20.27;;;11.37;;
10596;SDS011;5346;48.766;8.674;2022-12-11T00:59:39;21.67;;;10.70;;
10596;SDS011;5346;48.766;8.674;2022-12-11T01:02:06;32.13;;;13.23;;
10596;SDS011;5346;48.766;8.674;2022-12-11T01:04:40;23.43;;;11.47;;
10596;SDS011;5346;48.766;8.674;2022-12-11T01:07:07;22.27;;;11.33;;
10596;SDS011;5346;48.766;8.674;2022-12-11T01:09:34;24.37;;;12.70;;
10596;SDS011;5346;48.766;8.674;2022-12-11T01:12:27;22.23;;;11.77;;
10596;SDS011;5346;48.766;8.674;2022-12-11T01:14:54;25.90;;;13.17;;
10596;SDS011;5346;48.766;8.674;2022-12-11T01:17:21;28.57;;;13.50;;
10596;SDS011;5346;48.766;8.674;2022-12-11T01:19:55;27.73;;;13.63;;
10596;SDS011;5346;48.766;8.674;2022-12-11T01:22:22;30.17;;;13.67;;
10596;SDS011;5346;48.766;8.674;2022-12-11T01:24:49;32.03;;;14.57;;
10596;SDS011;5346;48.766;8.674;2022-12-11T01:27:23;34.07;;;14.70;;
10596;SDS011;5346;48.766;8.674;2022-12-11T01:29:50;35.23;;;15.80;;
10596;SDS011;5346;48.766;8.674;2022-12-11T01:32:17;35.13;;;16.40;;
10596;SDS011;5346;48.766;8.674;2022-12-11T01:34:51;31.03;;;15.77;;
10596;SDS011;5346;48.766;8.674;2022-12-11T01:37:18;32.37;;;16.90;;
10596;SDS011;5346;48.766;8.674;2022-12-11T01:39:46;39.77;;;16.53;;
10596;SDS011;5346;48.766;8.674;2022-12-11T01:42:19;39.33;;;17.10;;
10596;SDS011;5346;48.766;8.674;2022-12-11T01:47:16;41.57;;;19.00;;
10596;SDS011;5346;48.766;8.674;2022-12-11T01:49:49;42.87;;;17.57;;
10596;SDS011;5346;48.766;8.674;2022-12-11T01:52:18;37.03;;;17.40;;
10596;SDS011;5346;48.766;8.674;2022-12-11T01:54:47;41.10;;;18.17;;
10596;SDS011;5346;48.766;8.674;2022-12-11T01:57:23;45.30;;;18.57;;
10596;SDS011;5346;48.766;8.674;2022-12-11T01:59:50;44.57;;;18.87;;
10596;SDS011;5346;48.766;8.674;2022-12-11T02:02:19;47.97;;;20.50;;
10596;SDS011;5346;48.766;8.674;2022-12-11T02:04:57;49.80;;;19.57;;
10596;SDS011;5346;48.766;8.674;2022-12-11T02:07:27;45.07;;;19.13;;
10596;SDS011;5346;48.766;8.674;2022-12-11T02:10:09;43.43;;;18.20;;
10596;SDS011;5346;48.766;8.674;2022-12-11T02:12:40;46.40;;;20.03;;
10596;SDS011;5346;48.766;8.674;2022-12-11T02:15:41;44.43;;;18.60;;
10596;SDS011;5346;48.766;8.674;2022-12-11T02:18:34;48.23;;;20.00;;
10596;SDS011;5346;48.766;8.674;2022-12-11T02:21:22;47.90;;;20.70;;
10596;SDS011;5346;48.766;8.674;2022-12-11T02:24:18;48.60;;;19.87;;
10596;SDS011;5346;48.766;8.674;2022-12-11T02:30:00;44.07;;;19.20;;
10596;SDS011;5346;48.766;8.674;2022-12-11T02:37:59;47.17;;;19.40;;
10596;SDS011;5346;48.766;8.674;2022-12-11T02:40:34;50.43;;;21.87;;
10596;SDS011;5346;48.766;8.674;2022-12-11T02:43:12;49.90;;;20.50;;
10596;SDS011;5346;48.766;8.674;2022-12-11T02:45:42;48.73;;;20.23;;
10596;SDS011;5346;48.766;8.674;2022-12-11T02:48:12;44.47;;;20.13;;
10596;SDS011;5346;48.766;8.674;2022-12-11T02:50:51;49.27;;;19.93;;
10596;SDS011;5346;48.766;8.674;2022-12-11T02:53:30;52.97;;;20.97;;
10596;SDS011;5346;48.766;8.674;2022-12-11T02:56:19;42.23;;;20.00;;
10596;SDS011;5346;48.766;8.674;2022-12-11T03:02:02;44.10;;;18.80;;
10596;SDS011;5346;48.766;8.674;2022-12-11T03:04:30;40.00;;;18.50;;
10596;SDS011;5346;48.766;8.674;2022-12-11T03:07:02;45.90;;;19.00;;
10596;SDS011;5346;48.766;8.674;2022-12-11T03:09:47;43.43;;;18.20;;
10596;SDS011;5346;48.766;8.674;2022-12-11T03:12:17;45.67;;;19.73;;
10596;SDS011;5346;48.766;8.674;2022-12-11T03:15:03;47.43;;;18.50;;
10596;SDS011;5346;48.766;8.674;2022-12-11T03:17:45;46.03;;;19.57;;
10596;SDS011;5346;48.766;8.674;2022-12-11T03:20:50;47.73;;;18.60;;
10596;SDS011;5346;48.766;8.674;2022-12-11T03:26:21;40.27;;;17.07;;
10596;SDS011;5346;48.766;8.674;2022-12-11T03:28:52;42.67;;;18.77;;
10596;SDS011;5346;48.766;8.674;2022-12-11T03:31:38;42.30;;;18.73;;
10596;SDS011;5346;48.766;8.674;2022-12-11T03:34:18;37.37;;;16.87;;
10596;SDS011;5346;48.766;8.674;2022-12-11T03:37:01;42.97;;;18.50;;
10596;SDS011;5346;48.766;8.674;2022-12-11T03:39:32;40.10;;;17.90;;
10596;SDS011;5346;48.766;8.674;2022-12-11T03:42:12;44.20;;;17.03;;
10596;SDS011;5346;48.766;8.674;2022-12-11T03:44:43;45.47;;;18.53;;
10596;SDS011;5346;48.766;8.674;2022-12-11T03:47:21;38.53;;;18.57;;
10596;SDS011;5346;48.766;8.674;2022-12-11T03:49:51;38.63;;;16.60;;
10596;SDS011;5346;48.766;8.674;2022-12-11T03:52:28;33.97;;;16.33;;
10596;SDS011;5346;48.766;8.674;2022-12-11T03:55:04;39.50;;;18.17;;
10596;SDS011;5346;48.766;8.674;2022-12-11T03:57:39;40.77;;;16.90;;
10596;SDS011;5346;48.766;8.674;2022-12-11T04:00:08;36.10;;;18.13;;
10596;SDS011;5346;48.766;8.674;2022-12-11T04:02:46;35.93;;;16.90;;
10596;SDS011;5346;48.766;8.674;2022-12-11T04:05:45;37.77;;;17.63;;
10596;SDS011;5346;48.766;8.674;2022-12-11T04:08:23;35.10;;;16.93;;
10596;SDS011;5346;48.766;8.674;2022-12-11T04:10:50;33.30;;;15.97;;
10596;SDS011;5346;48.766;8.674;2022-12-11T04:13:42;31.23;;;15.67;;
10596;SDS011;5346;48.766;8.674;2022-12-11T04:16:09;31.40;;;15.17;;
10596;SDS011;5346;48.766;8.674;2022-12-11T04:18:36;33.63;;;15.07;;
10596;SDS011;5346;48.766;8.674;2022-12-11T04:21:28;30.03;;;14.67;;
10596;SDS011;5346;48.766;8.674;2022-12-11T04:24:14;31.00;;;15.13;;
10596;SDS011;5346;48.766;8.674;2022-12-11T04:26:47;30.00;;;14.03;;
10596;SDS011;5346;48.766;8.674;2022-12-11T04:29:14;29.17;;;14.77;;
10596;SDS011;5346;48.766;8.674;2022-12-11T04:31:41;30.57;;;15.17;;
10596;SDS011;5346;48.766;8.674;2022-12-11T04:34:15;31.87;;;14.97;;
10596;SDS011;5346;48.766;8.674;2022-12-11T04:36:43;32.37;;;14.93;;
10596;SDS011;5346;48.766;8.674;2022-12-11T04:39:10;33.40;;;14.03;;
10596;SDS011;5346;48.766;8.674;2022-12-11T04:41:43;28.80;;;14.30;;
10596;SDS011;5346;48.766;8.674;2022-12-11T04:44:10;26.80;;;13.57;;
10596;SDS011;5346;48.766;8.674;2022-12-11T04:46:37;28.23;;;13.00;;
10596;SDS011;5346;48.766;8.674;2022-12-11T04:49:10;26.70;;;12.70;;
10596;SDS011;5346;48.766;8.674;2022-12-11T04:51:37;28.67;;;13.97;;
10596;SDS011;5346;48.766;8.674;2022-12-11T04:54:04;26.97;;;12.60;;
10596;SDS011;5346;48.766;8.674;2022-12-11T04:56:38;28.60;;;12.53;;
10596;SDS011;5346;48.766;8.674;2022-12-11T04:59:11;28.10;;;12.37;;
10596;SDS011;5346;48.766;8.674;2022-12-11T05:01:45;26.77;;;13.43;;
10596;SDS011;5346;48.766;8.674;2022-12-11T05:04:13;26.07;;;12.50;;
10596;SDS011;5346;48.766;8.674;2022-12-11T05:06:40;25.03;;;12.37;;
10596;SDS011;5346;48.766;8.674;2022-12-11T05:09:14;23.90;;;12.37;;
10596;SDS011;5346;48.766;8.674;2022-12-11T05:11:41;26.20;;;12.53;;
10596;SDS011;5346;48.766;8.674;2022-12-11T05:14:09;25.90;;;12.93;;
10596;SDS011;5346;48.766;8.674;2022-12-11T05:16:42;23.80;;;11.30;;
10596;SDS011;5346;48.766;8.674;2022-12-11T05:19:09;22.20;;;11.57;;
10596;SDS011;5346;48.766;8.674;2022-12-11T05:21:36;23.97;;;11.87;;
10596;SDS011;5346;48.766;8.674;2022-12-11T05:24:10;25.93;;;11.20;;
10596;SDS011;5346;48.766;8.674;2022-12-11T05:26:37;23.50;;;11.13;;
10596;SDS011;5346;48.766;8.674;2022-12-11T05:29:04;21.67;;;11.03;;
10596;SDS011;5346;48.766;8.674;2022-12-11T05:31:38;22.83;;;11.37;;
10596;SDS011;5346;48.766;8.674;2022-12-11T05:34:05;22.07;;;10.77;;
10596;SDS011;5346;48.766;8.674;2022-12-11T05:36:33;22.27;;;10.77;;
10596;SDS011;5346;48.766;8.674;2022-12-11T05:39:06;19.17;;;10.53;;
10596;SDS011;5346;48.766;8.674;2022-12-11T05:41:34;20.47;;;10.77;;
10596;SDS011;5346;48.766;8.674;2022-12-11T05:44:02;19.87;;;10.47;;
10596;SDS011;5346;48.766;8.674;2022-12-11T05:46:35;19.93;;;10.07;;
10596;SDS011;5346;48.766;8.674;2022-12-11T05:49:02;19.77;;;9.77;;
10596;SDS011;5346;48.766;8.674;2022-12-11T05:51:34;16.47;;;9.17;;
10596;SDS011;5346;48.766;8.674;2022-12-11T05:54:14;15.40;;;8.67;;
10596;SDS011;5346;48.766;8.674;2022-12-11T05:56:42;17.00;;;10.07;;
10596;SDS011;5346;48.766;8.674;2022-12-11T05:59:16;20.00;;;9.73;;
10596;SDS011;5346;48.766;8.674;2022-12-11T06:01:45;17.17;;;9.67;;
10596;SDS011;5346;48.766;8.674;2022-12-11T06:04:12;24.00;;;8.87;;
10596;SDS011;5346;48.766;8.674;2022-12-11T06:06:46;19.43;;;8.83;;
10596;SDS011;5346;48.766;8.674;2022-12-11T06:09:14;14.70;;;8.60;;
10596;SDS011;5346;48.766;8.674;2022-12-11T06:11:42;16.03;;;8.13;;
10596;SDS011;5346;48.766;8.674;2022-12-11T06:14:16;15.17;;;8.70;;
10596;SDS011;5346;48.766;8.674;2022-12-11T06:16:43;15.20;;;8.43;;
10596;SDS011;5346;48.766;8.674;2022-12-11T06:19:14;14.30;;;7.77;;
10596;SDS011;5346;48.766;8.674;2022-12-11T06:21:50;17.60;;;8.07;;
10596;SDS011;5346;48.766;8.674;2022-12-11T06:24:17;16.33;;;7.50;;
10596;SDS011;5346;48.766;8.674;2022-12-11T06:26:44;12.87;;;7.07;;
10596;SDS011;5346;48.766;8.674;2022-12-11T06:29:18;15.40;;;7.60;;
10596;SDS011;5346;48.766;8.674;2022-12-11T06:31:45;13.70;;;7.47;;
10596;SDS011;5346;48.766;8.674;2022-12-11T06:34:12;15.10;;;6.90;;
10596;SDS011;5346;48.766;8.674;2022-12-11T06:36:46;14.80;;;8.03;;
10596;SDS011;5346;48.766;8.674;2022-12-11T06:39:13;12.40;;;6.73;;
10596;SDS011;5346;48.766;8.674;2022-12-11T06:41:40;14.83;;;7.80;;
10596;SDS011;5346;48.766;8.674;2022-12-11T06:44:14;15.27;;;7.57;;
10596;SDS011;5346;48.766;8.674;2022-12-11T06:46:41;15.17;;;8.07;;
10596;SDS011;5346;48.766;8.674;2022-12-11T06:49:08;17.27;;;7.90;;
10596;SDS011;5346;48.766;8.674;2022-12-11T06:51:42;18.83;;;8.30;;
10596;SDS011;5346;48.766;8.674;2022-12-11T06:54:09;15.57;;;8.00;;
10596;SDS011;5346;48.766;8.674;2022-12-11T06:56:50;18.73;;;8.77;;
10596;SDS011;5346;48.766;8.674;2022-12-11T06:59:18;15.50;;;8.70;;
10596;SDS011;5346;48.766;8.674;2022-12-11T07:01:45;16.80;;;8.83;;
10596;SDS011;5346;48.766;8.674;2022-12-11T07:04:19;14.53;;;7.33;;
10596;SDS011;5346;48.766;8.674;2022-12-11T07:06:50;18.10;;;8.63;;
10596;SDS011;5346;48.766;8.674;2022-12-11T07:09:17;18.13;;;8.43;;
10596;SDS011;5346;48.766;8.674;2022-12-11T07:11:51;17.13;;;8.57;;
10596;SDS011;5346;48.766;8.674;2022-12-11T07:14:19;20.27;;;8.17;;
10596;SDS011;5346;48.766;8.674;2022-12-11T07:16:46;16.50;;;8.47;;
10596;SDS011;5346;48.766;8.674;2022-12-11T07:19:20;15.67;;;7.83;;
10596;SDS011;5346;48.766;8.674;2022-12-11T07:21:48;17.40;;;7.77;;
10596;SDS011;5346;48.766;8.674;2022-12-11T07:24:16;17.83;;;8.77;;
10596;SDS011;5346;48.766;8.674;2022-12-11T07:26:51;13.47;;;7.37;;
10596;SDS011;5346;48.766;8.674;2022-12-11T07:29:19;15.10;;;7.30;;
10596;SDS011;5346;48.766;8.674;2022-12-11T07:31:46;13.30;;;6.27;;
10596;SDS011;5346;48.766;8.674;2022-12-11T07:34:19;18.00;;;6.73;;
10596;SDS011;5346;48.766;8.674;2022-12-11T07:36:47;12.90;;;7.53;;
10596;SDS011;5346;48.766;8.674;2022-12-11T07:39:14;14.27;;;7.20;;
10596;SDS011;5346;48.766;8.674;2022-12-11T07:41:48;15.97;;;7.57;;
10596;SDS011;5346;48.766;8.674;2022-12-11T07:44:16;14.40;;;7.13;;
10596;SDS011;5346;48.766;8.674;2022-12-11T07:46:44;13.43;;;7.50;;
10596;SDS011;5346;48.766;8.674;2022-12-11T07:49:18;11.73;;;6.83;;
10596;SDS011;5346;48.766;8.674;2022-12-11T07:51:45;13.67;;;6.90;;
10596;SDS011;5346;48.766;8.674;2022-12-11T07:54:13;14.47;;;7.47;;
10596;SDS011;5346;48.766;8.674;2022-12-11T07:56:55;11.87;;;7.03;;
10596;SDS011;5346;48.766;8.674;2022-12-11T07:59:22;18.07;;;7.70;;
10596;SDS011;5346;48.766;8.674;2022-12-11T08:01:58;12.03;;;7.10;;
10596;SDS011;5346;48.766;8.674;2022-12-11T08:04:25;13.73;;;6.50;;
10596;SDS011;5346;48.766;8.674;2022-12-11T08:06:52;10.00;;;5.93;;
10596;SDS011;5346;48.766;8.674;2022-12-11T08:09:26;12.47;;;6.97;;
10596;SDS011;5346;48.766;8.674;2022-12-11T08:11:54;10.17;;;6.10;;
10596;SDS011;5346;48.766;8.674;2022-12-11T08:14:21;13.43;;;7.07;;
10596;SDS011;5346;48.766;8.674;2022-12-11T08:16:55;11.17;;;6.10;;
10596;SDS011;5346;48.766;8.674;2022-12-11T08:19:23;14.03;;;7.63;;
10596;SDS011;5346;48.766;8.674;2022-12-11T08:21:50;13.70;;;9.10;;
10596;SDS011;5346;48.766;8.674;2022-12-11T08:24:24;10.00;;;5.93;;
10596;SDS011;5346;48.766;8.674;2022-12-11T08:26:53;9.57;;;6.10;;
10596;SDS011;5346;48.766;8.674;2022-12-11T08:29:20;11.53;;;6.20;;
10596;SDS011;5346;48.766;8.674;2022-12-11T08:31:54;13.43;;;7.30;;
10596;SDS011;5346;48.766;8.674;2022-12-11T08:34:22;10.60;;;6.77;;
10596;SDS011;5346;48.766;8.674;2022-12-11T08:36:49;11.83;;;5.80;;
10596;SDS011;5346;48.766;8.674;2022-12-11T08:39:23;17.03;;;7.97;;
10596;SDS011;5346;48.766;8.674;2022-12-11T08:41:51;10.73;;;7.00;;
10596;SDS011;5346;48.766;8.674;2022-12-11T08:44:18;9.87;;;6.00;;
10596;SDS011;5346;48.766;8.674;2022-12-11T08:46:52;9.50;;;5.53;;
10596;SDS011;5346;48.766;8.674;2022-12-11T08:49:19;12.63;;;6.27;;
10596;SDS011;5346;48.766;8.674;2022-12-11T08:51:47;14.07;;;6.30;;
10596;SDS011;5346;48.766;8.674;2022-12-11T08:54:20;9.23;;;5.47;;
10596;SDS011;5346;48.766;8.674;2022-12-11T08:57:01;10.47;;;5.43;;
10596;SDS011;5346;48.766;8.674;2022-12-11T08:59:34;9.13;;;5.47;;
10596;SDS011;5346;48.766;8.674;2022-12-11T09:02:01;10.63;;;5.80;;
10596;SDS011;5346;48.766;8.674;2022-12-11T09:04:29;10.77;;;5.87;;
10596;SDS011;5346;48.766;8.674;2022-12-11T09:07:02;8.10;;;5.20;;
10596;SDS011;5346;48.766;8.674;2022-12-11T09:09:30;11.27;;;5.53;;
10596;SDS011;5346;48.766;8.674;2022-12-11T09:11:57;8.60;;;5.30;;
10596;SDS011;5346;48.766;8.674;2022-12-11T09:14:33;13.43;;;6.10;;
10596;SDS011;5346;48.766;8.674;2022-12-11T09:17:02;9.00;;;6.07;;
10596;SDS011;5346;48.766;8.674;2022-12-11T09:19:31;10.47;;;5.80;;
10596;SDS011;5346;48.766;8.674;2022-12-11T09:22:04;9.70;;;5.33;;
10596;SDS011;5346;48.766;8.674;2022-12-11T09:24:32;10.77;;;5.80;;
10596;SDS011;5346;48.766;8.674;2022-12-11T09:26:59;8.97;;;5.30;;
10596;SDS011;5346;48.766;8.674;2022-12-11T09:29:32;7.87;;;4.90;;
10596;SDS011;5346;48.766;8.674;2022-12-11T09:32:00;10.40;;;5.23;;
10596;SDS011;5346;48.766;8.674;2022-12-11T09:34:27;10.27;;;5.30;;
10596;SDS011;5346;48.766;8.674;2022-12-11T09:37:01;10.17;;;5.30;;
10596;SDS011;5346;48.766;8.674;2022-12-11T09:39:29;9.47;;;5.13;;
10596;SDS011;5346;48.766;8.674;2022-12-11T09:41:59;10.20;;;5.50;;
10596;SDS011;5346;48.766;8.674;2022-12-11T09:44:50;9.93;;;5.10;;
10596;SDS011;5346;48.766;8.674;2022-12-11T09:55:18;6.53;;;4.50;;
10596;SDS011;5346;48.766;8.674;2022-12-11T10:01:08;7.07;;;4.07;;
10596;SDS011;5346;48.766;8.674;2022-12-11T10:06:44;6.00;;;3.90;;
10596;SDS011;5346;48.766;8.674;2022-12-11T10:14:52;10.20;;;6.37;;
10596;SDS011;5346;48.766;8.674;2022-12-11T10:18:02;5.50;;;3.73;;
10596;SDS011;5346;48.766;8.674;2022-12-11T10:20:38;8.53;;;3.87;;
10596;SDS011;5346;48.766;8.674;2022-12-11T10:23:19;4.47;;;3.73;;
10596;SDS011;5346;48.766;8.674;2022-12-11T10:25:57;5.13;;;3.47;;
10596;SDS011;5346;48.766;8.674;2022-12-11T10:28:42;7.33;;;3.50;;
10596;SDS011;5346;48.766;8.674;2022-12-11T10:31:17;5.57;;;3.53;;
10596;SDS011;5346;48.766;8.674;2022-12-11T10:34:01;4.70;;;3.17;;
10596;SDS011;5346;48.766;8.674;2022-12-11T10:36:34;6.53;;;3.10;;
10596;SDS011;5346;48.766;8.674;2022-12-11T10:39:13;5.43;;;3.13;;
10596;SDS011;5346;48.766;8.674;2022-12-11T10:41:47;4.67;;;3.37;;
10596;SDS011;5346;48.766;8.674;2022-12-11T10:44:24;6.53;;;3.40;;
10596;SDS011;5346;48.766;8.674;2022-12-11T10:47:09;5.80;;;3.33;;
10596;SDS011;5346;48.766;8.674;2022-12-11T10:49:54;7.87;;;4.00;;
10596;SDS011;5346;48.766;8.674;2022-12-11T10:52:30;5.53;;;3.77;;
10596;SDS011;5346;48.766;8.674;2022-12-11T10:55:18;5.60;;;3.30;;
10596;SDS011;5346;48.766;8.674;2022-12-11T10:57:57;5.17;;;3.20;;
10596;SDS011;5346;48.766;8.674;2022-12-11T11:00:35;6.50;;;3.97;;
10596;SDS011;5346;48.766;8.674;2022-12-11T11:03:18;4.70;;;3.33;;
10596;SDS011;5346;48.766;8.674;2022-12-11T11:06:03;5.13;;;3.20;;
10596;SDS011;5346;48.766;8.674;2022-12-11T11:08:41;20.43;;;9.07;;
10596;SDS011;5346;48.766;8.674;2022-12-11T11:11:22;6.83;;;3.73;;
10596;SDS011;5346;48.766;8.674;2022-12-11T11:14:14;5.33;;;3.57;;
10596;SDS011;5346;48.766;8.674;2022-12-11T11:16:53;5.23;;;3.43;;
10596;SDS011;5346;48.766;8.674;2022-12-11T11:19:28;7.10;;;4.30;;
10596;SDS011;5346;48.766;8.674;2022-12-11T11:22:13;13.03;;;7.60;;
10596;SDS011;5346;48.766;8.674;2022-12-11T11:24:51;5.53;;;3.63;;
10596;SDS011;5346;48.766;8.674;2022-12-11T11:27:29;5.33;;;3.97;;
10596;SDS011;5346;48.766;8.674;2022-12-11T11:30:07;6.53;;;4.70;;
10596;SDS011;5346;48.766;8.674;2022-12-11T11:33:21;6.27;;;3.63;;
10596;SDS011;5346;48.766;8.674;2022-12-11T11:35:59;5.80;;;3.50;;
10596;SDS011;5346;48.766;8.674;2022-12-11T11:38:52;4.60;;;3.13;;
10596;SDS011;5346;48.766;8.674;2022-12-11T11:42:09;10.33;;;6.07;;
10596;SDS011;5346;48.766;8.674;2022-12-11T11:45:02;7.33;;;4.30;;
10596;SDS011;5346;48.766;8.674;2022-12-11T11:47:44;6.10;;;4.60;;
10596;SDS011;5346;48.766;8.674;2022-12-11T11:50:43;8.77;;;5.67;;
10596;SDS011;5346;48.766;8.674;2022-12-11T11:53:14;7.23;;;4.57;;
10596;SDS011;5346;48.766;8.674;2022-12-11T11:56:27;7.37;;;5.13;;
10596;SDS011;5346;48.766;8.674;2022-12-11T11:59:10;8.33;;;4.10;;
10596;SDS011;5346;48.766;8.674;2022-12-11T12:02:08;4.10;;;3.23;;
10596;SDS011;5346;48.766;8.674;2022-12-11T12:04:42;5.80;;;3.53;;
10596;SDS011;5346;48.766;8.674;2022-12-11T12:07:23;4.67;;;3.23;;
10596;SDS011;5346;48.766;8.674;2022-12-11T12:13:07;5.00;;;2.90;;
10596;SDS011;5346;48.766;8.674;2022-12-11T12:16:56;4.10;;;2.77;;
10596;SDS011;5346;48.766;8.674;2022-12-11T12:25:14;3.77;;;2.43;;
10596;SDS011;5346;48.766;8.674;2022-12-11T12:34:15;5.93;;;2.50;;
10596;SDS011;5346;48.766;8.674;2022-12-11T12:37:03;6.40;;;2.50;;
10596;SDS011;5346;48.766;8.674;2022-12-11T12:48:49;2.37;;;1.93;;
10596;SDS011;5346;48.766;8.674;2022-12-11T12:51:29;3.97;;;2.27;;
10596;SDS011;5346;48.766;8.674;2022-12-11T12:54:17;4.17;;;2.20;;
10596;SDS011;5346;48.766;8.674;2022-12-11T12:57:00;3.57;;;2.30;;
10596;SDS011;5346;48.766;8.674;2022-12-11T12:59:36;3.13;;;2.23;;
10596;SDS011;5346;48.766;8.674;2022-12-11T13:02:03;4.10;;;2.20;;
10596;SDS011;5346;48.766;8.674;2022-12-11T13:04:39;3.80;;;2.40;;
10596;SDS011;5346;48.766;8.674;2022-12-11T13:07:27;2.57;;;1.97;;
10596;SDS011;5346;48.766;8.674;2022-12-11T13:09:59;4.70;;;2.50;;
10596;SDS011;5346;48.766;8.674;2022-12-11T13:12:43;5.17;;;3.47;;
10596;SDS011;5346;48.766;8.674;2022-12-11T13:18:29;7.87;;;4.17;;
10596;SDS011;5346;48.766;8.674;2022-12-11T13:21:21;5.90;;;3.73;;
10596;SDS011;5346;48.766;8.674;2022-12-11T13:24:23;8.63;;;5.70;;
10596;SDS011;5346;48.766;8.674;2022-12-11T13:26:53;7.97;;;5.47;;
10596;SDS011;5346;48.766;8.674;2022-12-11T13:29:33;6.77;;;3.40;;
10596;SDS011;5346;48.766;8.674;2022-12-11T13:34:51;4.90;;;2.87;;
10596;SDS011;5346;48.766;8.674;2022-12-11T13:37:33;4.17;;;2.37;;
10596;SDS011;5346;48.766;8.674;2022-12-11T13:40:14;3.80;;;2.00;;
10596;SDS011;5346;48.766;8.674;2022-12-11T13:42:53;4.10;;;2.47;;
10596;SDS011;5346;48.766;8.674;2022-12-11T13:48:15;4.73;;;2.87;;
10596;SDS011;5346;48.766;8.674;2022-12-11T13:50:58;4.70;;;2.53;;
10596;SDS011;5346;48.766;8.674;2022-12-11T13:53:27;4.27;;;2.90;;
10596;SDS011;5346;48.766;8.674;2022-12-11T13:55:56;6.33;;;2.67;;
10596;SDS011;5346;48.766;8.674;2022-12-11T13:58:42;6.57;;;3.33;;
10596;SDS011;5346;48.766;8.674;2022-12-11T14:01:18;4.73;;;2.63;;
10596;SDS011;5346;48.766;8.674;2022-12-11T14:04:07;4.53;;;3.27;;
10596;SDS011;5346;48.766;8.674;2022-12-11T14:06:43;4.50;;;3.17;;
10596;SDS011;5346;48.766;8.674;2022-12-11T14:09:18;5.97;;;3.67;;
10596;SDS011;5346;48.766;8.674;2022-12-11T14:11:51;4.93;;;3.13;;
10596;SDS011;5346;48.766;8.674;2022-12-11T14:14:39;4.37;;;3.00;;
10596;SDS011;5346;48.766;8.674;2022-12-11T14:17:12;4.43;;;2.97;;
10596;SDS011;5346;48.766;8.674;2022-12-11T14:19:49;5.13;;;3.07;;
10596;SDS011;5346;48.766;8.674;2022-12-11T14:22:19;5.47;;;2.90;;
10596;SDS011;5346;48.766;8.674;2022-12-11T14:25:00;6.80;;;3.07;;
10596;SDS011;5346;48.766;8.674;2022-12-11T14:27:48;9.67;;;3.23;;
10596;SDS011;5346;48.766;8.674;2022-12-11T14:30:27;7.30;;;3.30;;
10596;SDS011;5346;48.766;8.674;2022-12-11T14:32:59;4.07;;;2.80;;
10596;SDS011;5346;48.766;8.674;2022-12-11T14:35:38;6.33;;;3.13;;
10596;SDS011;5346;48.766;8.674;2022-12-11T14:38:19;3.33;;;2.50;;
10596;SDS011;5346;48.766;8.674;2022-12-11T14:42:14;5.53;;;2.73;;
10596;SDS011;5346;48.766;8.674;2022-12-11T14:44:55;5.80;;;2.83;;
10596;SDS011;5346;48.766;8.674;2022-12-11T14:47:40;4.93;;;2.80;;
10596;SDS011;5346;48.766;8.674;2022-12-11T14:53:12;3.43;;;2.40;;
10596;SDS011;5346;48.766;8.674;2022-12-11T14:55:51;3.43;;;2.63;;
10596;SDS011;5346;48.766;8.674;2022-12-11T14:58:36;4.90;;;3.17;;
10596;SDS011;5346;48.766;8.674;2022-12-11T15:01:26;7.77;;;4.27;;
10596;SDS011;5346;48.766;8.674;2022-12-11T15:04:28;19.03;;;8.80;;
10596;SDS011;5346;48.766;8.674;2022-12-11T15:06:58;16.10;;;9.27;;
10596;SDS011;5346;48.766;8.674;2022-12-11T15:09:35;5.17;;;3.03;;
10596;SDS011;5346;48.766;8.674;2022-12-11T15:12:10;4.20;;;2.97;;
10596;SDS011;5346;48.766;8.674;2022-12-11T15:14:59;6.23;;;2.97;;
10596;SDS011;5346;48.766;8.674;2022-12-11T15:17:32;4.30;;;2.67;;
10596;SDS011;5346;48.766;8.674;2022-12-11T15:20:21;4.83;;;2.43;;
10596;SDS011;5346;48.766;8.674;2022-12-11T15:22:56;3.83;;;2.57;;
10596;SDS011;5346;48.766;8.674;2022-12-11T15:25:33;4.17;;;2.80;;
10596;SDS011;5346;48.766;8.674;2022-12-11T15:28:00;5.00;;;2.97;;
10596;SDS011;5346;48.766;8.674;2022-12-11T15:30:29;4.57;;;2.77;;
10596;SDS011;5346;48.766;8.674;2022-12-11T15:35:37;4.70;;;2.33;;
10596;SDS011;5346;48.766;8.674;2022-12-11T15:38:41;6.13;;;4.03;;
10596;SDS011;5346;48.766;8.674;2022-12-11T15:41:11;4.47;;;2.83;;
10596;SDS011;5346;48.766;8.674;2022-12-11T15:43:49;4.37;;;2.70;;
10596;SDS011;5346;48.766;8.674;2022-12-11T15:46:24;4.30;;;2.60;;
10596;SDS011;5346;48.766;8.674;2022-12-11T15:48:58;7.13;;;3.73;;
10596;SDS011;5346;48.766;8.674;2022-12-11T15:51:25;8.10;;;3.43;;
10596;SDS011;5346;48.766;8.674;2022-12-11T15:53:52;8.10;;;4.60;;
10596;SDS011;5346;48.766;8.674;2022-12-11T15:56:33;7.63;;;3.83;;
10596;SDS011;5346;48.766;8.674;2022-12-11T15:59:02;6.37;;;4.10;;
10596;SDS011;5346;48.766;8.674;2022-12-11T16:01:38;8.87;;;4.90;;
10596;SDS011;5346;48.766;8.674;2022-12-11T16:04:05;10.07;;;5.80;;
10596;SDS011;5346;48.766;8.674;2022-12-11T16:06:32;9.60;;;5.70;;
10596;SDS011;5346;48.766;8.674;2022-12-11T16:09:06;7.07;;;4.27;;
10596;SDS011;5346;48.766;8.674;2022-12-11T16:11:33;6.87;;;5.00;;
10596;SDS011;5346;48.766;8.674;2022-12-11T16:14:00;7.50;;;5.07;;
10596;SDS011;5346;48.766;8.674;2022-12-11T16:16:36;12.60;;;6.07;;
10596;SDS011;5346;48.766;8.674;2022-12-11T16:19:03;19.63;;;9.43;;
10596;SDS011;5346;48.766;8.674;2022-12-11T16:21:30;14.53;;;8.50;;
10596;SDS011;5346;48.766;8.674;2022-12-11T16:24:04;16.27;;;8.83;;
10596;SDS011;5346;48.766;8.674;2022-12-11T16:26:31;20.67;;;10.73;;
10596;SDS011;5346;48.766;8.674;2022-12-11T16:28:59;23.80;;;12.97;;
10596;SDS011;5346;48.766;8.674;2022-12-11T16:31:32;21.03;;;11.90;;
10596;SDS011;5346;48.766;8.674;2022-12-11T16:33:59;21.30;;;12.77;;
10596;SDS011;5346;48.766;8.674;2022-12-11T16:36:26;25.27;;;14.37;;
10596;SDS011;5346;48.766;8.674;2022-12-11T16:39:01;26.33;;;14.43;;
10596;SDS011;5346;48.766;8.674;2022-12-11T16:41:29;27.03;;;15.67;;
10596;SDS011;5346;48.766;8.674;2022-12-11T16:43:56;30.03;;;16.50;;
10596;SDS011;5346;48.766;8.674;2022-12-11T16:46:32;37.13;;;20.03;;
10596;SDS011;5346;48.766;8.674;2022-12-11T16:48:59;39.07;;;21.47;;
10596;SDS011;5346;48.766;8.674;2022-12-11T16:51:26;38.20;;;21.00;;